Time;durP1;ratioP1;P1;durP2;ratioP2;P2;SDS_P1;SDS_P2;PMS_P1;PMS_P2;Temp;Humidity;BMP_temperature;BMP_pressure;BME280_temperature;BME280_humidity;BME280_pressure;Samples;Min_cycle;Max_cycle;Signal;HPM_P1;HPM_P2
2023/04/25 00:01:51;;;;;;;0.55;0.30;;;21.30;43.10;;;;;;6433605;27;20023;-46
2023/04/25 00:04:52;;;;;;;0.38;0.30;;;21.30;43.10;;;;;;6432808;27;20031;-48
2023/04/25 00:07:55;;;;;;;0.35;0.35;;;21.60;43.20;;;;;;6432338;27;20042;-51
2023/04/25 00:10:57;;;;;;;0.20;0.20;;;21.40;43.00;;;;;;6431439;27;20039;-48
2023/04/25 00:13:59;;;;;;;0.50;0.30;;;21.50;43.00;;;;;;6429998;27;20043;-48
2023/04/25 00:17:04;;;;;;;0.32;0.20;;;21.50;43.00;;;;;;6431901;27;20039;-49
2023/04/25 00:20:09;;;;;;;0.60;0.30;;;21.20;42.80;;;;;;6427828;27;20047;-47
2023/04/25 00:23:10;;;;;;;0.70;0.40;;;21.30;42.90;;;;;;6429032;27;20049;-50
2023/04/25 00:26:13;;;;;;;;;;;21.40;43.10;;;;;;6430980;27;20064;-52
2023/04/25 00:29:14;;;;;;;0.40;0.40;;;21.10;43.20;;;;;;6412217;27;19918;-46
2023/04/25 00:32:16;;;;;;;0.50;0.50;;;21.20;43.10;;;;;;6431303;27;20042;-51
2023/04/25 00:35:17;;;;;;;0.80;0.50;;;21.40;43.10;;;;;;6430053;27;20036;-49
2023/04/25 00:38:20;;;;;;;0.43;0.30;;;21.20;43.00;;;;;;6432712;27;20027;-51
2023/04/25 00:41:22;;;;;;;;;;;21.40;43.10;;;;;;6434027;27;20022;-51
2023/04/25 00:44:24;;;;;;;0.32;0.20;;;21.50;43.30;;;;;;6432818;27;19990;-49
2023/04/25 00:47:26;;;;;;;0.22;0.20;;;21.40;43.10;;;;;;6432373;27;20082;-50
2023/04/25 00:50:28;;;;;;;0.40;0.20;;;21.10;42.90;;;;;;6433069;27;20078;-50
2023/04/25 00:53:31;;;;;;;0.30;0.22;;;21.30;43.00;;;;;;6433201;27;20047;-49
2023/04/25 00:56:34;;;;;;;0.50;0.50;;;21.20;42.80;;;;;;6433247;27;20041;-51
2023/04/25 00:59:37;;;;;;;0.22;0.22;;;21.10;42.90;;;;;;6433137;27;20023;-48
2023/04/25 01:02:39;;;;;;;0.60;0.40;;;21.10;42.70;;;;;;6432546;27;20042;-49
2023/04/25 01:05:42;;;;;;;0.40;0.30;;;21.00;42.70;;;;;;6431122;27;20047;-51
2023/04/25 01:08:43;;;;;;;0.52;0.38;;;21.10;42.80;;;;;;6389887;27;20054;-48
2023/04/25 01:11:45;;;;;;;0.80;0.40;;;21.30;43.00;;;;;;6401025;27;20121;-53
2023/04/25 01:14:47;;;;;;;0.40;0.20;;;21.40;43.00;;;;;;6400881;27;20042;-54
2023/04/25 01:17:49;;;;;;;1.02;0.40;;;21.40;43.00;;;;;;6401137;27;20410;-48
2023/04/25 01:20:52;;;;;;;0.30;0.20;;;21.40;42.80;;;;;;6401232;27;20045;-53
2023/04/25 01:23:55;;;;;;;0.60;0.38;;;21.40;42.80;;;;;;6400725;27;20053;-52
2023/04/25 01:27:01;;;;;;;0.35;0.32;;;21.20;42.90;;;;;;6400711;27;20062;-49
2023/04/25 01:30:05;;;;;;;0.45;0.30;;;21.30;42.70;;;;;;6382711;27;20409;-53
2023/04/25 01:33:08;;;;;;;0.45;0.40;;;21.50;42.80;;;;;;6400510;27;20163;-49
2023/04/25 01:36:10;;;;;;;0.50;0.50;;;21.40;42.80;;;;;;6400352;27;20039;-49
2023/04/25 01:39:15;;;;;;;0.57;0.30;;;21.10;42.60;;;;;;6400619;27;20659;-53
2023/04/25 01:42:16;;;;;;;0.45;0.30;;;21.40;42.70;;;;;;6400376;27;20050;-53
2023/04/25 01:45:18;;;;;;;0.38;0.28;;;21.30;42.70;;;;;;6400155;27;20053;-53
2023/04/25 01:48:20;;;;;;;0.75;0.45;;;21.30;42.70;;;;;;6381843;27;20046;-54
2023/04/25 01:51:22;;;;;;;0.50;0.30;;;21.00;42.50;;;;;;6382629;27;20047;-54
2023/04/25 01:54:24;;;;;;;0.68;0.35;;;21.30;42.80;;;;;;6400034;27;20043;-50
2023/04/25 01:57:26;;;;;;;0.60;0.30;;;21.40;42.80;;;;;;6400318;27;20042;-54
2023/04/25 02:00:28;;;;;;;0.30;0.30;;;21.30;42.70;;;;;;6400149;27;20050;-53
2023/04/25 02:03:30;;;;;;;;;;;21.30;42.70;;;;;;6400385;27;20039;-54
2023/04/25 02:06:32;;;;;;;0.70;0.35;;;21.30;42.90;;;;;;6398815;27;19919;-53
2023/04/25 02:09:35;;;;;;;;;;;21.20;42.80;;;;;;6400995;27;20045;-54
2023/04/25 02:12:41;;;;;;;0.25;0.20;;;21.10;42.90;;;;;;6399707;27;19919;-53
2023/04/25 02:16:02;;;;;;;0.50;0.20;;;21.20;42.70;;;;;;6399636;27;20112;-53
2023/04/25 02:19:05;;;;;;;0.40;0.30;;;21.30;42.70;;;;;;6399691;27;20541;-54
2023/04/25 02:22:07;;;;;;;0.52;0.40;;;21.20;42.50;;;;;;6399584;27;20042;-54
2023/04/25 02:25:09;;;;;;;;;;;21.30;42.70;;;;;;6400421;27;20050;-52
2023/04/25 02:28:11;;;;;;;0.40;0.40;;;20.80;42.60;;;;;;6399473;27;19926;-54
2023/04/25 02:31:16;;;;;;;0.43;0.40;;;20.90;42.40;;;;;;6364960;27;20057;-53
2023/04/25 02:34:19;;;;;;;0.68;0.30;;;21.20;42.50;;;;;;6382089;27;20499;-53
2023/04/25 02:37:21;;;;;;;0.22;0.20;;;21.00;42.40;;;;;;6399393;27;20050;-53
2023/04/25 02:40:23;;;;;;;;;;;21.30;42.60;;;;;;6400402;27;20062;-53
2023/04/25 02:43:24;;;;;;;0.30;0.30;;;21.20;42.80;;;;;;6399549;27;19940;-50
2023/04/25 02:46:28;;;;;;;0.57;0.20;;;21.00;42.40;;;;;;6399255;27;20494;-53
2023/04/25 02:49:40;;;;;;;0.77;0.30;;;21.10;42.50;;;;;;6398957;27;20050;-51
2023/04/25 02:52:41;;;;;;;;;;;21.10;42.40;;;;;;6399830;27;20046;-53
2023/04/25 02:55:49;;;;;;;0.32;0.20;;;21.00;42.70;;;;;;6399367;27;19941;-53
2023/04/25 02:58:51;;;;;;;0.30;0.30;;;21.20;42.50;;;;;;6398951;27;20050;-53
2023/04/25 03:01:58;;;;;;;;;;;20.90;42.40;;;;;;6399127;27;20510;-54
2023/04/25 03:04:59;;;;;;;0.40;0.32;;;20.90;41.50;;;;;;6399049;27;19919;-54
2023/04/25 03:08:02;;;;;;;0.45;0.40;;;21.10;42.60;;;;;;6398717;27;20096;-51
2023/04/25 03:11:07;;;;;;;0.85;0.32;;;20.90;42.40;;;;;;6398575;27;20046;-53
2023/04/25 03:14:10;;;;;;;0.38;0.20;;;21.20;42.50;;;;;;6398914;27;20051;-51
2023/04/25 03:17:11;;;;;;;0.32;0.30;;;20.90;42.20;;;;;;6398190;27;20039;-54
2023/04/25 03:20:13;;;;;;;0.28;0.28;;;20.80;42.30;;;;;;6398414;27;20129;-52
2023/04/25 03:23:14;;;;;;;0.50;0.38;;;21.10;42.40;;;;;;6398761;27;20119;-53
2023/04/25 03:26:18;;;;;;;0.50;0.32;;;21.00;42.30;;;;;;6398507;27;20475;-51
2023/04/25 03:29:25;;;;;;;0.30;0.30;;;21.10;42.40;;;;;;6346892;28;21211;-52
2023/04/25 03:32:27;;;;;;;0.40;0.30;;;21.20;42.40;;;;;;6347421;28;20044;-53
2023/04/25 03:35:28;;;;;;;0.40;0.30;;;21.00;42.30;;;;;;6347053;28;20036;-53
2023/04/25 03:38:30;;;;;;;;;;;21.20;42.50;;;;;;6348189;28;20040;-53
2023/04/25 03:41:33;;;;;;;0.28;0.28;;;21.10;42.70;;;;;;6347479;28;19920;-52
2023/04/25 03:44:40;;;;;;;0.45;0.30;;;21.00;42.40;;;;;;6347459;28;20038;-49
2023/04/25 03:47:41;;;;;;;0.77;0.20;;;21.10;42.30;;;;;;6346813;28;20039;-51
2023/04/25 03:50:42;;;;;;;;;;;20.90;42.20;;;;;;6347543;28;20134;-52
2023/04/25 03:53:44;;;;;;;;;;;21.00;42.50;;;;;;6347227;28;20378;-52
2023/04/25 03:57:02;;;;;;;0.75;0.68;;;20.60;42.40;;;;;;6346685;28;19926;-53
2023/04/25 04:00:07;;;;;;;0.35;0.30;;;21.10;42.40;;;;;;6346602;28;20066;-50
2023/04/25 04:03:23;;;;;;;0.30;0.30;;;21.00;42.10;;;;;;6347205;28;20048;-53
2023/04/25 04:06:26;;;;;;;0.52;0.35;;;20.80;42.00;;;;;;6346657;28;20048;-51
2023/04/25 04:09:36;;;;;;;0.45;0.30;;;20.90;42.10;;;;;;6346418;28;20048;-54
2023/04/25 04:12:45;;;;;;;0.30;0.20;;;20.90;42.10;;;;;;6346676;28;20071;-53
2023/04/25 04:15:49;;;;;;;0.50;0.47;;;21.00;42.10;;;;;;6346287;28;20482;-51
2023/04/25 04:18:52;;;;;;;0.30;0.30;;;21.00;42.00;;;;;;6347048;28;20048;-51
2023/04/25 04:21:53;;;;;;;0.20;0.20;;;20.80;42.00;;;;;;6346685;28;20544;-54
2023/04/25 04:24:56;;;;;;;0.50;0.35;;;21.00;42.10;;;;;;6346451;28;20059;-52
2023/04/25 04:28:13;;;;;;;0.50;0.30;;;20.70;41.80;;;;;;6346087;28;20046;-52
2023/04/25 04:31:25;;;;;;;0.40;0.30;;;20.80;42.00;;;;;;6350192;28;20063;-50
2023/04/25 04:34:27;;;;;;;0.70;0.30;;;21.30;42.20;;;;;;6351003;28;20046;-51
2023/04/25 04:37:30;;;;;;;0.30;0.25;;;21.20;42.30;;;;;;6350490;28;20483;-50
2023/04/25 04:40:33;;;;;;;0.50;0.30;;;20.80;42.10;;;;;;6350770;28;20485;-50
2023/04/25 04:48:53;;;;;;;0.57;0.35;;;21.00;41.20;;;;;;6350614;28;20032;-50
2023/04/25 04:52:14;;;;;;;0.28;0.22;;;21.10;42.40;;;;;;6349954;28;20039;-50
2023/04/25 04:55:30;;;;;;;0.68;0.47;;;21.00;42.40;;;;;;6350520;28;20048;-53
2023/04/25 04:58:44;;;;;;;0.82;0.40;;;20.70;42.40;;;;;;6349698;28;20043;-52
2023/04/25 05:02:05;;;;;;;0.32;0.20;;;20.90;42.50;;;;;;6349937;28;20047;-51
2023/04/25 05:05:22;;;;;;;0.47;0.30;;;21.00;41.80;;;;;;6345940;28;20046;-53
2023/04/25 05:08:34;;;;;;;0.50;0.50;;;21.00;42.70;;;;;;6349736;28;20065;-51
2023/04/25 05:11:52;;;;;;;0.30;0.30;;;21.00;42.70;;;;;;6350048;28;20114;-52
2023/04/25 05:15:03;;;;;;;0.52;0.20;;;20.80;42.60;;;;;;6349863;28;20105;-52
2023/04/25 05:18:27;;;;;;;0.22;0.20;;;20.60;42.60;;;;;;6349541;28;20044;-54
2023/04/25 05:21:43;;;;;;;0.60;0.40;;;20.90;41.60;;;;;;6349607;28;20514;-53
2023/04/25 05:29:35;;;;;;;0.85;0.20;;;20.90;41.60;;;;;;6349304;28;20126;-48
2023/04/25 05:32:52;;;;;;;0.40;0.30;;;20.80;42.90;;;;;;6344829;28;20054;-54
2023/04/25 05:35:56;;;;;;;0.88;0.43;;;20.80;42.90;;;;;;6349167;28;20035;-51
2023/04/25 05:38:59;;;;;;;0.32;0.32;;;21.10;43.00;;;;;;6349323;28;20115;-53
2023/04/25 05:42:24;;;;;;;0.38;0.30;;;20.70;42.90;;;;;;6348534;28;20043;-50
2023/04/25 05:45:41;;;;;;;0.30;0.30;;;21.00;41.80;;;;;;6344761;28;20123;-50
2023/04/25 05:48:56;;;;;;;0.55;0.20;;;20.60;42.90;;;;;;6348671;28;20391;-53
2023/04/25 05:52:12;;;;;;;0.20;0.20;;;21.00;43.00;;;;;;6348980;28;20530;-53
2023/04/25 05:55:22;;;;;;;0.32;0.32;;;20.70;43.00;;;;;;6348700;28;20051;-51
2023/04/25 05:58:24;;;;;;;0.20;0.20;;;20.90;43.00;;;;;;6348242;28;20558;-53
2023/04/25 06:01:26;;;;;;;0.47;0.30;;;20.70;43.40;;;;;;6348937;28;20054;-53
2023/04/25 06:04:28;;;;;;;0.38;0.30;;;20.70;43.00;;;;;;6348566;28;20047;-52
2023/04/25 06:07:30;;;;;;;0.50;0.40;;;20.90;43.90;;;;;;6348655;28;20050;-52
2023/04/25 06:10:32;;;;;;;0.40;0.40;;;20.90;43.10;;;;;;6348565;28;20039;-51
2023/04/25 06:13:34;;;;;;;1.85;0.45;;;21.20;43.50;;;;;;6348313;28;20043;-52
2023/04/25 06:16:35;;;;;;;1.27;0.30;;;20.90;43.40;;;;;;6348544;28;20118;-53
2023/04/25 06:19:37;;;;;;;;;;;20.90;43.40;;;;;;6348848;28;20048;-53
2023/04/25 06:22:39;;;;;;;;;;;20.70;43.60;;;;;;6348504;28;19920;-52
2023/04/25 06:25:41;;;;;;;0.43;0.28;;;21.00;43.90;;;;;;6348655;28;19919;-53
2023/04/25 06:28:42;;;;;;;0.73;0.32;;;20.70;43.20;;;;;;6347406;28;20079;-54
2023/04/25 06:31:44;;;;;;;1.55;0.30;;;21.00;43.70;;;;;;6348159;28;20069;-52
2023/04/25 06:34:46;;;;;;;0.65;0.40;;;20.60;43.50;;;;;;6329937;28;20048;-52
2023/04/25 06:37:48;;;;;;;0.45;0.45;;;21.00;43.80;;;;;;6347629;28;20046;-51
2023/04/25 06:40:54;;;;;;;0.85;0.30;;;20.60;43.60;;;;;;6347671;28;20065;-51
2023/04/25 06:43:56;;;;;;;0.47;0.47;;;21.00;43.90;;;;;;6347498;28;20403;-52
2023/04/25 06:47:04;;;;;;;0.65;0.45;;;20.80;43.70;;;;;;6347088;28;20044;-53
2023/04/25 06:50:06;;;;;;;1.63;0.50;;;21.10;44.00;;;;;;6347569;28;20044;-54
2023/04/25 06:53:11;;;;;;;1.23;0.60;;;21.10;44.00;;;;;;6346961;28;20069;-46
2023/04/25 06:56:15;;;;;;;0.90;0.35;;;21.00;43.90;;;;;;6347051;28;20039;-49
2023/04/25 06:59:27;;;;;;;0.57;0.30;;;21.10;44.10;;;;;;6347553;28;20035;-49
2023/04/25 07:02:28;;;;;;;0.93;0.43;;;20.80;44.20;;;;;;6347345;28;20499;-47
2023/04/25 07:05:30;;;;;;;1.00;0.35;;;21.10;44.90;;;;;;6346826;28;20092;-47
2023/04/25 07:08:35;;;;;;;0.60;0.40;;;20.90;45.30;;;;;;6347225;28;20044;-49
2023/04/25 07:11:37;;;;;;;1.42;0.35;;;21.20;45.30;;;;;;6346811;28;20512;-49
2023/04/25 07:14:39;;;;;;;0.60;0.30;;;20.60;45.30;;;;;;6346241;28;20456;-42
2023/04/25 07:17:41;;;;;;;1.17;0.50;;;20.80;45.10;;;;;;6346854;28;20097;-49
2023/04/25 07:20:44;;;;;;;2.10;0.80;;;21.30;45.70;;;;;;6347158;28;20104;-46
2023/04/25 07:23:47;;;;;;;2.22;0.38;;;21.30;45.60;;;;;;6346639;28;20104;-45
2023/04/25 07:26:54;;;;;;;0.65;0.50;;;21.00;45.50;;;;;;6347017;28;20035;-48
2023/04/25 07:30:03;;;;;;;0.57;0.20;;;21.20;44.70;;;;;;6297348;28;20043;-50
2023/04/25 07:33:05;;;;;;;0.50;0.30;;;21.30;45.10;;;;;;6346937;28;20043;-49
2023/04/25 07:36:08;;;;;;;0.60;0.43;;;21.00;45.00;;;;;;6346921;28;20028;-45
2023/04/25 07:39:10;;;;;;;0.68;0.30;;;21.30;45.40;;;;;;6346756;28;20048;-48
2023/04/25 07:42:13;;;;;;;0.60;0.30;;;21.20;45.30;;;;;;6346241;28;20126;-45
2023/04/25 07:45:18;;;;;;;0.45;0.30;;;21.20;45.40;;;;;;6346052;28;20459;-49
2023/04/25 07:48:28;;;;;;;0.30;0.30;;;21.40;45.80;;;;;;6346063;28;20475;-49
2023/04/25 07:51:31;;;;;;;3.25;0.60;;;21.40;46.10;;;;;;6346313;28;20058;-47
2023/04/25 07:54:38;;;;;;;0.47;0.30;;;21.40;45.60;;;;;;6345938;28;20047;-47
2023/04/25 07:57:49;;;;;;;0.40;0.30;;;21.30;46.10;;;;;;6346152;28;20452;-48
2023/04/25 08:00:51;;;;;;;0.20;0.20;;;21.60;46.10;;;;;;6346332;28;20071;-46
2023/04/25 08:04:12;;;;;;;1.85;0.35;;;21.50;46.00;;;;;;6347723;28;20040;-48
2023/04/25 08:07:32;;;;;;;0.60;0.22;;;21.30;45.70;;;;;;6350004;28;20084;-44
2023/04/25 08:10:38;;;;;;;0.55;0.50;;;21.30;45.70;;;;;;6350860;28;20040;-45
2023/04/25 08:13:43;;;;;;;0.65;0.30;;;21.40;45.50;;;;;;6349912;28;20172;-49
2023/04/25 08:16:45;;;;;;;0.82;0.55;;;21.70;45.60;;;;;;6349284;28;20040;-47
2023/04/25 08:19:49;;;;;;;1.30;0.50;;;21.50;45.50;;;;;;6332846;28;20122;-45
2023/04/25 08:22:58;;;;;;;0.50;0.47;;;21.50;45.50;;;;;;6350166;28;20143;-44
2023/04/25 08:26:10;;;;;;;0.95;0.50;;;21.70;45.70;;;;;;6350679;28;20449;-44
2023/04/25 08:29:25;;;;;;;1.70;0.50;;;21.50;45.50;;;;;;6350263;28;20071;-46
2023/04/25 08:32:29;;;;;;;0.73;0.40;;;21.50;45.30;;;;;;6349840;28;20043;-45
2023/04/25 08:35:48;;;;;;;1.13;0.50;;;21.50;45.40;;;;;;6349869;28;20032;-45
2023/04/25 08:38:50;;;;;;;0.80;0.45;;;21.80;45.50;;;;;;6350147;28;20044;-46
2023/04/25 08:41:55;;;;;;;0.50;0.45;;;21.80;45.50;;;;;;6349802;28;20559;-44
2023/04/25 08:45:01;;;;;;;0.55;0.38;;;21.80;45.90;;;;;;6349823;28;20036;-50
2023/04/25 08:48:11;;;;;;;1.30;0.50;;;21.90;45.40;;;;;;6350331;28;20055;-45
2023/04/25 08:51:22;;;;;;;1.27;0.45;;;21.90;45.40;;;;;;6331532;28;20032;-47
2023/04/25 08:54:27;;;;;;;;;;;21.60;45.30;;;;;;6332375;28;20441;-52
2023/04/25 08:57:38;;;;;;;2.60;0.45;;;21.80;45.60;;;;;;6349551;28;19966;-47
2023/04/25 09:00:40;;;;;;;0.95;0.50;;;21.90;45.40;;;;;;6349391;28;20085;-45
2023/04/25 09:03:42;;;;;;;1.00;0.50;;;21.70;45.40;;;;;;6349324;28;20402;-47
2023/04/25 09:06:45;;;;;;;1.40;0.40;;;21.60;45.30;;;;;;6349287;28;20039;-50
2023/04/25 09:09:46;;;;;;;0.40;0.30;;;19.90;44.50;;;;;;6349134;28;20090;-46
2023/04/25 09:13:03;;;;;;;0.63;0.38;;;21.70;45.40;;;;;;6349410;28;20408;-48
2023/04/25 09:16:09;;;;;;;0.60;0.40;;;21.70;45.20;;;;;;6348278;28;20036;-45
2023/04/25 09:19:22;;;;;;;1.38;0.30;;;21.90;44.90;;;;;;6301986;28;20054;-46
2023/04/25 09:22:42;;;;;;;0.38;0.32;;;21.80;45.20;;;;;;6348674;28;20040;-52
2023/04/25 09:25:45;;;;;;;0.63;0.40;;;21.70;45.20;;;;;;6348741;28;20039;-51
2023/04/25 09:28:47;;;;;;;1.73;0.30;;;21.80;45.10;;;;;;6345108;28;20044;-50
2023/04/25 09:31:52;;;;;;;0.47;0.25;;;22.00;45.20;;;;;;6348260;28;20407;-50
2023/04/25 09:34:55;;;;;;;0.70;0.50;;;21.80;45.00;;;;;;6348864;28;20043;-48
2023/04/25 09:38:07;;;;;;;0.60;0.40;;;21.70;44.90;;;;;;6348700;28;20044;-48
2023/04/25 09:41:23;;;;;;;0.60;0.40;;;21.80;44.80;;;;;;6348475;28;20040;-45
2023/04/25 09:44:26;;;;;;;1.08;0.40;;;22.00;44.90;;;;;;6348995;28;20507;-49
2023/04/25 09:47:30;;;;;;;0.82;0.40;;;21.60;44.80;;;;;;6348559;28;20118;-47
2023/04/25 09:50:32;;;;;;;0.73;0.30;;;22.10;45.00;;;;;;6348026;28;20046;-47
2023/04/25 09:53:46;;;;;;;0.70;0.20;;;22.10;45.00;;;;;;6347946;28;20047;-44
2023/04/25 09:56:54;;;;;;;0.40;0.30;;;22.00;44.70;;;;;;6348542;28;20055;-46
2023/04/25 09:59:58;;;;;;;0.40;0.25;;;21.60;44.60;;;;;;6348329;28;20047;-49
2023/04/25 10:03:06;;;;;;;0.65;0.30;;;21.90;44.70;;;;;;6330628;28;20051;-49
2023/04/25 10:06:28;;;;;;;1.58;0.47;;;21.60;44.50;;;;;;6348362;28;20180;-47
2023/04/25 10:09:33;;;;;;;0.50;0.30;;;22.10;44.70;;;;;;6347887;28;20047;-50
2023/04/25 10:12:36;;;;;;;0.22;0.20;;;22.20;44.70;;;;;;6348295;28;20108;-47
2023/04/25 10:15:38;;;;;;;0.47;0.30;;;22.20;44.70;;;;;;6348369;28;20495;-45
2023/04/25 10:18:42;;;;;;;0.47;0.30;;;22.20;44.50;;;;;;6347821;28;20047;-45
2023/04/25 10:21:50;;;;;;;2.03;0.85;;;21.90;44.50;;;;;;6348085;28;20487;-47
2023/04/25 10:24:52;;;;;;;0.30;0.30;;;22.10;44.40;;;;;;6348245;28;20159;-49
2023/04/25 10:27:54;;;;;;;1.40;0.30;;;22.00;44.40;;;;;;6346573;28;20055;-46
2023/04/25 10:31:00;;;;;;;0.30;0.30;;;22.20;44.40;;;;;;6347857;28;20040;-47
2023/04/25 10:34:02;;;;;;;1.40;0.30;;;22.40;44.40;;;;;;6347923;28;20115;-45
2023/04/25 10:37:06;;;;;;;0.20;0.20;;;22.10;44.10;;;;;;6347874;28;20040;-47
2023/04/25 10:40:09;;;;;;;0.50;0.30;;;22.30;44.20;;;;;;6347592;28;20047;-44
2023/04/25 10:43:37;;;;;;;0.82;0.52;;;22.20;43.90;;;;;;6347229;28;20051;-48
2023/04/25 10:46:38;;;;;;;0.22;0.22;;;22.00;43.70;;;;;;6331567;28;20148;-45
2023/04/25 10:49:42;;;;;;;0.28;0.28;;;22.10;43.70;;;;;;6347628;28;20040;-50
2023/04/25 10:52:44;;;;;;;0.32;0.30;;;22.10;43.60;;;;;;6329217;28;20146;-49
2023/04/25 10:55:51;;;;;;;1.45;0.25;;;21.90;43.40;;;;;;6347772;28;20039;-49
2023/04/25 10:59:02;;;;;;;0.30;0.30;;;22.30;43.40;;;;;;6347193;28;20088;-49
2023/04/25 11:02:13;;;;;;;0.55;0.25;;;22.20;43.40;;;;;;6347140;28;20051;-47
2023/04/25 11:05:31;;;;;;;0.47;0.20;;;22.40;43.30;;;;;;6347396;28;20038;-51
2023/04/25 11:08:49;;;;;;;0.50;0.20;;;20.50;42.10;;;;;;6313308;28;20040;-52
2023/04/25 11:11:55;;;;;;;0.28;0.20;;;22.00;42.90;;;;;;6342815;28;20056;-50
2023/04/25 11:15:01;;;;;;;0.30;0.20;;;22.30;42.90;;;;;;6329257;28;20446;-50
2023/04/25 11:18:03;;;;;;;0.63;0.30;;;22.30;42.80;;;;;;6328528;28;20058;-49
2023/04/25 11:21:06;;;;;;;0.32;0.28;;;22.40;42.80;;;;;;6346807;28;20051;-45
2023/04/25 11:24:07;;;;;;;0.30;0.30;;;21.70;42.40;;;;;;6346590;28;20047;-50
2023/04/25 11:27:09;;;;;;;;;;;22.20;42.50;;;;;;6347425;28;20386;-49
2023/04/25 11:30:12;;;;;;;0.65;0.40;;;22.50;42.90;;;;;;6346514;28;19919;-48
2023/04/25 11:33:14;;;;;;;0.22;0.20;;;22.10;42.40;;;;;;6346768;28;20498;-49
2023/04/25 11:36:16;;;;;;;0.60;0.40;;;22.50;42.70;;;;;;6346942;28;20089;-48
2023/04/25 11:39:18;;;;;;;0.43;0.20;;;22.20;42.40;;;;;;6294099;28;20519;-44
2023/04/25 11:42:20;;;;;;;1.25;0.20;;;22.20;42.30;;;;;;6328090;28;20044;-48
2023/04/25 11:45:23;;;;;;;0.38;0.32;;;22.40;42.30;;;;;;6346659;28;20471;-46
2023/04/25 11:48:28;;;;;;;0.50;0.38;;;22.50;42.40;;;;;;6328413;28;20047;-44
2023/04/25 11:51:30;;;;;;;0.73;0.30;;;22.40;42.30;;;;;;6345609;28;20040;-47
2023/04/25 11:54:35;;;;;;;0.75;0.68;;;22.20;42.10;;;;;;6346317;28;20064;-49
2023/04/25 11:57:38;;;;;;;1.33;0.30;;;22.40;42.10;;;;;;6346093;28;20506;-46
2023/04/25 12:00:42;;;;;;;0.85;0.30;;;22.30;42.00;;;;;;6311431;28;20495;-45
2023/04/25 12:03:51;;;;;;;;;;;22.30;42.00;;;;;;6329503;28;20463;-46
2023/04/25 12:06:55;;;;;;;0.82;0.17;;;22.60;42.40;;;;;;6345763;28;19981;-46
2023/04/25 12:09:59;;;;;;;0.40;0.40;;;22.80;42.10;;;;;;6346628;28;20044;-50
2023/04/25 12:13:18;;;;;;;0.30;0.30;;;22.80;41.90;;;;;;6346293;28;20085;-44
2023/04/25 12:16:23;;;;;;;0.80;0.30;;;22.40;41.40;;;;;;6346437;28;20173;-52
2023/04/25 12:19:33;;;;;;;0.60;0.40;;;22.40;41.40;;;;;;6345824;28;20493;-49
2023/04/25 12:22:36;;;;;;;0.75;0.45;;;22.40;41.20;;;;;;6327706;28;20040;-48
2023/04/25 12:25:38;;;;;;;0.40;0.40;;;22.50;41.20;;;;;;6346091;28;20510;-50
2023/04/25 12:28:46;;;;;;;0.75;0.35;;;22.50;41.00;;;;;;6327877;28;20119;-49
2023/04/25 12:31:51;;;;;;;0.63;0.40;;;22.50;40.80;;;;;;6345690;28;20101;-45
2023/04/25 12:34:54;;;;;;;0.38;0.35;;;22.50;40.70;;;;;;6328418;28;20115;-48
2023/04/25 12:37:57;;;;;;;0.30;0.20;;;22.40;40.70;;;;;;6345554;28;20040;-48
2023/04/25 12:40:59;;;;;;;0.40;0.30;;;22.50;40.70;;;;;;6345680;28;20434;-44
2023/04/25 12:44:00;;;;;;;0.80;0.43;;;22.60;40.70;;;;;;6345262;28;20051;-46
2023/04/25 12:47:02;;;;;;;0.85;0.55;;;22.60;40.60;;;;;;6345305;28;20051;-46
2023/04/25 12:50:05;;;;;;;1.67;0.50;;;22.60;40.60;;;;;;6293656;28;20551;-46
2023/04/25 12:53:07;;;;;;;0.88;0.52;;;22.50;41.00;;;;;;6350331;28;20044;-48
2023/04/25 12:56:08;;;;;;;0.55;0.40;;;22.50;40.50;;;;;;6349347;28;20047;-45
2023/04/25 12:59:10;;;;;;;1.40;0.43;;;22.70;40.50;;;;;;6349935;28;20035;-45
2023/04/25 13:02:11;;;;;;;0.57;0.30;;;22.50;40.40;;;;;;6349613;28;20047;-44
2023/04/25 13:05:13;;;;;;;0.35;0.30;;;21.70;40.00;;;;;;6349277;28;20406;-46
2023/04/25 13:08:16;;;;;;;0.63;0.30;;;22.70;40.30;;;;;;6349788;28;20036;-45
2023/04/25 13:11:17;;;;;;;0.63;0.30;;;22.60;40.20;;;;;;6349531;28;20043;-48
2023/04/25 13:14:19;;;;;;;0.40;0.20;;;22.70;40.20;;;;;;6349308;28;20051;-48
2023/04/25 13:17:20;;;;;;;0.55;0.30;;;22.80;40.10;;;;;;6349510;28;20493;-47
2023/04/25 13:20:22;;;;;;;;;;;22.80;40.00;;;;;;6349726;28;20437;-46
2023/04/25 13:23:26;;;;;;;;;;;22.60;39.90;;;;;;6349605;28;19919;-45
2023/04/25 13:26:30;;;;;;;0.55;0.40;;;22.80;40.10;;;;;;6349557;28;19919;-46
2023/04/25 13:29:34;;;;;;;0.77;0.50;;;22.70;40.00;;;;;;6349219;28;20039;-49
2023/04/25 13:32:36;;;;;;;0.38;0.28;;;22.50;39.70;;;;;;6349045;28;20055;-44
2023/04/25 13:35:39;;;;;;;0.55;0.30;;;22.80;39.80;;;;;;6349619;28;20059;-49
2023/04/25 13:38:43;;;;;;;0.85;0.30;;;22.70;39.70;;;;;;6330920;28;20050;-46
2023/04/25 13:41:45;;;;;;;0.38;0.30;;;22.90;39.70;;;;;;6349543;28;20043;-43
2023/04/25 13:44:46;;;;;;;0.30;0.20;;;22.90;39.60;;;;;;6349273;28;20040;-44
2023/04/25 13:47:48;;;;;;;1.70;0.35;;;22.90;39.60;;;;;;6348817;28;20429;-47
2023/04/25 13:50:51;;;;;;;0.65;0.32;;;22.70;39.50;;;;;;6348760;28;20046;-44
2023/04/25 13:53:53;;;;;;;;;;;22.90;39.70;;;;;;6349469;28;20043;-46
2023/04/25 13:56:58;;;;;;;0.40;0.20;;;23.00;39.70;;;;;;6348678;28;19927;-44
2023/04/25 14:00:08;;;;;;;0.35;0.28;;;22.60;39.50;;;;;;6348374;28;20043;-47
2023/04/25 14:03:10;;;;;;;1.15;0.65;;;22.90;39.50;;;;;;6335877;28;20047;-46
2023/04/25 14:06:12;;;;;;;2.22;0.40;;;23.00;39.50;;;;;;6348866;28;20050;-44
2023/04/25 14:09:15;;;;;;;0.38;0.35;;;22.90;39.40;;;;;;6348696;28;20115;-43
2023/04/25 14:12:17;;;;;;;0.28;0.20;;;22.90;39.30;;;;;;6348469;28;20040;-45
2023/04/25 14:15:21;;;;;;;0.32;0.30;;;22.90;39.20;;;;;;6348358;28;20036;-44
2023/04/25 14:18:23;;;;;;;2.15;0.38;;;23.00;39.20;;;;;;6347957;28;20055;-44
2023/04/25 14:21:25;;;;;;;0.80;0.50;;;23.00;39.20;;;;;;6347957;28;20499;-43
2023/04/25 14:24:27;;;;;;;0.52;0.40;;;22.90;39.10;;;;;;6348384;28;20042;-45
2023/04/25 14:27:29;;;;;;;0.75;0.40;;;23.10;39.00;;;;;;6348060;28;20031;-46
2023/04/25 14:30:30;;;;;;;0.30;0.30;;;23.00;38.90;;;;;;6347969;28;20053;-43
2023/04/25 14:33:32;;;;;;;0.57;0.57;;;23.00;38.90;;;;;;6347693;28;20415;-43
2023/04/25 14:36:35;;;;;;;0.65;0.38;;;23.00;38.90;;;;;;6347185;28;20503;-42
2023/04/25 14:39:37;;;;;;;2.05;0.95;;;23.10;38.70;;;;;;6329433;28;20043;-45
2023/04/25 14:42:39;;;;;;;0.40;0.30;;;23.10;38.70;;;;;;6346821;28;20058;-43
2023/04/25 14:45:41;;;;;;;0.60;0.30;;;23.20;38.60;;;;;;6329187;28;20036;-43
2023/04/25 14:48:43;;;;;;;0.55;0.38;;;23.00;38.40;;;;;;6347760;28;20036;-45
2023/04/25 14:51:44;;;;;;;0.77;0.40;;;23.20;38.50;;;;;;6347169;28;20047;-44
2023/04/25 14:54:47;;;;;;;;;;;23.20;38.50;;;;;;6347744;28;20040;-46
2023/04/25 14:57:48;;;;;;;1.05;0.63;;;23.20;38.60;;;;;;6346913;28;20022;-46
2023/04/25 15:00:50;;;;;;;;;;;23.30;38.50;;;;;;6348193;28;20395;-44
2023/04/25 15:03:52;;;;;;;0.95;0.30;;;23.20;38.50;;;;;;6329156;28;19927;-45
2023/04/25 15:06:55;;;;;;;0.90;0.40;;;23.30;38.40;;;;;;6347243;28;20487;-42
2023/04/25 15:09:58;;;;;;;0.55;0.38;;;23.30;39.00;;;;;;6347489;28;20089;-45
2023/04/25 15:13:00;;;;;;;1.65;0.70;;;23.20;38.30;;;;;;6346642;28;20039;-44
2023/04/25 15:16:02;;;;;;;2.13;0.50;;;23.00;38.20;;;;;;6329171;28;20040;-44
2023/04/25 15:19:04;;;;;;;0.47;0.38;;;23.30;38.20;;;;;;6347676;28;20040;-43
2023/04/25 15:22:06;;;;;;;0.32;0.30;;;23.40;38.20;;;;;;6347059;28;20035;-45
2023/04/25 15:25:13;;;;;;;0.43;0.30;;;23.30;38.00;;;;;;6346943;28;20427;-44
2023/04/25 15:28:16;;;;;;;2.10;0.35;;;23.40;37.90;;;;;;6346766;28;20141;-50
2023/04/25 15:31:21;;;;;;;1.05;0.40;;;23.30;37.80;;;;;;6346160;28;20455;-46
2023/04/25 15:34:22;;;;;;;0.43;0.28;;;23.40;37.80;;;;;;6346112;28;20399;-44
2023/04/25 15:37:24;;;;;;;0.43;0.25;;;23.30;37.80;;;;;;6346874;28;20039;-51
2023/04/25 15:40:26;;;;;;;1.00;0.40;;;23.40;37.80;;;;;;6346326;28;20051;-50
2023/04/25 15:43:27;;;;;;;0.28;0.20;;;23.40;37.70;;;;;;6346399;28;20070;-46
2023/04/25 15:46:31;;;;;;;0.22;0.22;;;23.30;37.60;;;;;;6346864;28;20483;-49
2023/04/25 15:49:32;;;;;;;0.70;0.40;;;23.40;37.50;;;;;;6346868;28;20040;-49
2023/04/25 15:52:34;;;;;;;0.40;0.30;;;23.50;37.60;;;;;;6346555;28;20139;-46
2023/04/25 15:55:38;;;;;;;0.45;0.40;;;23.40;37.50;;;;;;6346553;28;20047;-51
2023/04/25 15:58:39;;;;;;;0.22;0.22;;;23.40;37.40;;;;;;6346700;28;20047;-52
2023/04/25 16:01:40;;;;;;;;;;;23.50;37.50;;;;;;6347056;28;20082;-48
2023/04/25 16:04:43;;;;;;;0.82;0.22;;;23.40;37.50;;;;;;6346782;28;20239;-45
2023/04/25 16:07:46;;;;;;;2.30;0.30;;;23.40;37.50;;;;;;6346435;28;20061;-46
2023/04/25 16:10:48;;;;;;;0.30;0.20;;;23.50;37.50;;;;;;6346143;28;20451;-48
2023/04/25 16:13:50;;;;;;;0.32;0.30;;;23.50;37.40;;;;;;6346586;28;20118;-52
2023/04/25 16:16:52;;;;;;;0.60;0.30;;;23.50;37.40;;;;;;6346368;28;20123;-45
2023/04/25 16:19:54;;;;;;;0.60;0.30;;;23.40;37.20;;;;;;6346175;28;20044;-48